createdAt,value
2018-08-23T00:01:31.825Z,4.07
2018-08-23T00:04:05.489Z,7.20
2018-08-23T00:06:33.945Z,3.40
2018-08-23T00:09:02.225Z,5.13
2018-08-23T00:11:32.302Z,4.47
2018-08-23T00:14:00.584Z,4.23
2018-08-23T00:16:35.379Z,4.00
2018-08-23T00:19:04.391Z,3.77
2018-08-23T00:21:32.717Z,4.47
2018-08-23T00:24:08.984Z,4.00
2018-08-23T00:26:38.137Z,3.83
2018-08-23T00:29:16.993Z,4.23
2018-08-23T00:31:50.856Z,6.67
2018-08-23T00:34:19.314Z,4.93
2018-08-23T00:36:47.554Z,4.87
2018-08-23T00:39:15.842Z,4.53
2018-08-23T00:41:49.305Z,4.10
2018-08-23T00:44:17.813Z,5.40
2018-08-23T00:46:46.157Z,4.90
2018-08-23T00:49:15.150Z,7.33
2018-08-23T00:51:44.794Z,5.00
2018-08-23T00:54:13.652Z,5.17
2018-08-23T00:56:41.965Z,5.17
2018-08-23T00:59:11.774Z,3.60
2018-08-23T01:01:40.842Z,6.43
2018-08-23T01:04:09.112Z,7.03
2018-08-23T01:06:40.517Z,3.70
2018-08-23T01:09:10.217Z,6.50
2018-08-23T01:11:38.484Z,5.73
2018-08-23T01:14:06.837Z,4.77
2018-08-23T01:16:35.082Z,4.03
2018-08-23T01:19:08.477Z,4.53
2018-08-23T01:21:38.697Z,4.10
2018-08-23T01:24:06.963Z,6.87
2018-08-23T01:26:35.641Z,6.00
2018-08-23T01:29:13.946Z,5.20
2018-08-23T01:31:42.218Z,7.60
2018-08-23T01:34:10.450Z,6.90
2018-08-23T01:36:38.756Z,4.43
2018-08-23T01:39:10.221Z,4.20
2018-08-23T01:41:38.509Z,5.30
2018-08-23T01:44:06.865Z,4.67
2018-08-23T01:46:41.369Z,5.97
2018-08-23T01:49:09.648Z,4.53
2018-08-23T01:51:37.935Z,4.57
2018-08-23T01:54:06.221Z,4.50
2018-08-23T01:56:34.494Z,5.23
2018-08-23T01:59:02.777Z,5.67
2018-08-23T02:01:31.025Z,6.30
2018-08-23T02:03:59.269Z,6.53
2018-08-23T02:06:32.713Z,7.50
2018-08-23T02:09:01.231Z,5.43
2018-08-23T02:11:29.469Z,5.67
2018-08-23T02:13:57.808Z,6.47
2018-08-23T02:16:26.200Z,6.00
2018-08-23T02:18:54.540Z,5.83
2018-08-23T02:21:22.880Z,5.63
2018-08-23T02:23:53.129Z,4.77
2018-08-23T02:26:21.453Z,4.73
2018-08-23T02:28:50.512Z,7.30
2018-08-23T02:31:18.870Z,8.07
2018-08-23T02:33:47.273Z,7.90
2018-08-23T02:36:16.561Z,5.27
2018-08-23T02:38:49.310Z,6.30
2018-08-23T02:41:17.817Z,5.93
2018-08-23T02:43:46.641Z,5.87
2018-08-23T02:46:15.089Z,5.10
2018-08-23T02:48:43.426Z,7.07
2018-08-23T02:51:11.780Z,5.80
2018-08-23T02:53:45.197Z,7.03
2018-08-23T02:56:18.390Z,4.97
2018-08-23T02:58:56.313Z,7.17
2018-08-23T03:01:25.623Z,5.10
2018-08-23T03:04:05.286Z,6.43
2018-08-23T03:06:38.685Z,5.20
2018-08-23T03:09:07.853Z,5.83
2018-08-23T03:11:37.950Z,6.53
2018-08-23T03:14:06.689Z,5.37
2018-08-23T03:16:47.658Z,5.07
2018-08-23T03:19:16.346Z,5.57
2018-08-23T03:21:44.805Z,5.83
2018-08-23T03:24:13.197Z,7.97
2018-08-23T03:26:41.533Z,5.37
2018-08-23T03:29:09.819Z,7.40
2018-08-23T03:31:38.152Z,5.83
2018-08-23T03:34:06.481Z,11.93
2018-08-23T03:36:34.789Z,5.70
2018-08-23T03:39:03.232Z,5.90
2018-08-23T03:41:31.573Z,5.43
2018-08-23T03:43:59.905Z,6.13
2018-08-23T03:46:28.284Z,7.03
2018-08-23T03:49:00.982Z,8.50
2018-08-23T03:51:29.892Z,5.80
2018-08-23T03:54:00.032Z,6.47
2018-08-23T03:56:28.352Z,7.43
2018-08-23T03:58:56.665Z,6.37
2018-08-23T04:01:24.981Z,6.37
2018-08-23T04:03:53.796Z,8.90
2018-08-23T04:06:38.666Z,6.37
2018-08-23T04:09:08.577Z,8.97
2018-08-23T04:11:36.964Z,8.00
2018-08-23T04:14:05.473Z,10.13
2018-08-23T04:16:33.913Z,9.10
2018-08-23T04:19:02.336Z,11.03
2018-08-23T04:21:30.685Z,12.40
2018-08-23T04:24:00.369Z,13.27
2018-08-23T04:26:28.876Z,15.47
2018-08-23T04:28:57.229Z,16.53
2018-08-23T04:31:25.582Z,13.47
2018-08-23T04:33:53.991Z,17.60
2018-08-23T04:36:29.673Z,14.80
2018-08-23T04:39:00.545Z,16.87
2018-08-23T04:41:30.025Z,17.43
2018-08-23T04:44:00.340Z,15.03
2018-08-23T04:46:31.757Z,17.27
2018-08-23T04:49:01.259Z,21.73
2018-08-23T04:51:29.892Z,20.30
2018-08-23T04:53:58.385Z,55.97
2018-08-23T04:56:26.786Z,54.37
2018-08-23T04:58:55.085Z,90.77
2018-08-23T05:01:23.465Z,109.07
2018-08-23T05:03:52.479Z,157.47
2018-08-23T05:06:20.807Z,133.03
2018-08-23T05:08:49.265Z,146.43
2018-08-23T05:11:17.661Z,113.77
2018-08-23T05:13:46.550Z,133.70
2018-08-23T05:16:14.873Z,117.60
2018-08-23T05:18:43.270Z,130.37
2018-08-23T05:21:11.586Z,156.17
2018-08-23T05:23:39.901Z,134.83
2018-08-23T05:26:12.776Z,147.07
2018-08-23T05:28:45.625Z,151.97
2018-08-23T05:31:13.917Z,173.63
2018-08-23T05:33:42.308Z,157.70
2018-08-23T05:36:14.961Z,145.30
2018-08-23T05:38:43.349Z,114.43
2018-08-23T05:41:12.926Z,180.87
2018-08-23T05:43:41.618Z,177.77
2018-08-23T05:46:09.997Z,158.07
2018-08-23T05:48:38.346Z,139.03
2018-08-23T05:51:09.396Z,181.70
2018-08-23T05:53:40.366Z,202.70
2018-08-23T05:56:09.045Z,178.57
2018-08-23T05:58:37.433Z,187.40
2018-08-23T06:01:05.913Z,133.83
2018-08-23T06:03:35.021Z,164.97
2018-08-23T06:06:03.360Z,148.40
2018-08-23T06:08:31.686Z,142.27
2018-08-23T06:11:05.673Z,129.13
2018-08-23T06:13:34.054Z,124.00
2018-08-23T06:16:02.442Z,125.87
2018-08-23T06:18:30.785Z,112.63
2018-08-23T06:20:59.097Z,119.73
2018-08-23T06:24:08.932Z,94.67
2018-08-23T06:26:42.450Z,88.53
2018-08-23T06:29:13.468Z,83.70
2018-08-23T06:31:50.791Z,74.30
2018-08-23T06:34:19.213Z,79.80
2018-08-23T06:36:47.925Z,73.97
2018-08-23T06:39:16.405Z,75.40
2018-08-23T06:41:44.743Z,69.77
2018-08-23T06:44:13.985Z,69.57
2018-08-23T06:46:42.417Z,72.27
2018-08-23T06:49:10.845Z,63.23
2018-08-23T06:51:39.396Z,65.50
2018-08-23T06:54:07.755Z,59.63
2018-08-23T06:56:38.248Z,56.10
2018-08-23T06:59:07.177Z,53.07
2018-08-23T07:01:47.845Z,53.77
2018-08-23T07:04:16.197Z,50.17
2018-08-23T07:06:44.599Z,49.10
2018-08-23T07:09:14.545Z,47.17
2018-08-23T07:11:43.297Z,50.90
2018-08-23T07:14:13.270Z,47.70
2018-08-23T07:16:42.913Z,53.47
2018-08-23T07:19:26.906Z,48.67
2018-08-23T07:21:55.935Z,50.07
2018-08-23T07:24:38.312Z,48.83
2018-08-23T07:27:08.677Z,48.70
2018-08-23T07:29:37.053Z,51.50
2018-08-23T07:32:07.124Z,50.33
2018-08-23T07:34:35.724Z,54.23
2018-08-23T07:37:08.141Z,49.20
2018-08-23T07:39:36.643Z,51.93
2018-08-23T07:42:05.194Z,52.00
2018-08-23T07:44:33.558Z,55.67
2018-08-23T07:47:01.929Z,51.67
2018-08-23T07:49:30.273Z,53.13
2018-08-23T07:51:58.653Z,53.30
2018-08-23T07:54:27.176Z,55.77
2018-08-23T07:56:55.504Z,51.33
2018-08-23T07:59:23.925Z,48.30
2018-08-23T08:01:52.285Z,49.90
2018-08-23T08:04:20.637Z,45.73
2018-08-23T08:06:49.016Z,47.40
2018-08-23T08:09:25.098Z,45.23
2018-08-23T08:11:58.952Z,44.97
2018-08-23T08:14:34.170Z,41.50
2018-08-23T08:17:13.659Z,38.03
2018-08-23T08:19:46.315Z,36.37
2018-08-23T08:22:14.837Z,37.57
2018-08-23T08:24:43.357Z,41.73
2018-08-23T08:27:11.743Z,40.97
2018-08-23T08:29:40.309Z,39.60
2018-08-23T08:32:10.497Z,34.40
2018-08-23T08:34:43.185Z,35.40
2018-08-23T08:37:11.526Z,36.90
2018-08-23T08:39:39.997Z,33.30
2018-08-23T08:42:08.353Z,34.00
2018-08-23T08:44:36.922Z,35.27
2018-08-23T08:47:05.273Z,36.20
2018-08-23T08:49:34.616Z,36.60
2018-08-23T08:52:03.013Z,31.60
2018-08-23T08:54:31.343Z,27.43
2018-08-23T08:56:59.720Z,29.93
2018-08-23T08:59:32.026Z,32.77
2018-08-23T09:02:00.711Z,35.30
2018-08-23T09:04:35.023Z,31.90
2018-08-23T09:07:03.364Z,35.00
2018-08-23T09:09:35.520Z,39.63
2018-08-23T09:12:07.188Z,37.33
2018-08-23T09:14:36.297Z,40.57
2018-08-23T09:17:21.576Z,37.17
2018-08-23T09:20:03.926Z,36.73
2018-08-23T09:22:37.665Z,38.43
2018-08-23T09:25:17.910Z,38.00
2018-08-23T09:27:47.846Z,31.67
2018-08-23T09:30:21.737Z,34.23
2018-08-23T09:32:50.128Z,30.27
2018-08-23T09:35:18.744Z,26.68
2018-08-23T09:37:48.837Z,25.45
2018-08-23T09:40:17.209Z,26.10
2018-08-23T09:42:45.535Z,25.48
2018-08-23T09:45:18.633Z,24.98
2018-08-23T09:47:47.029Z,25.30
2018-08-23T09:50:15.472Z,24.35
2018-08-23T09:52:45.911Z,23.20
2018-08-23T09:55:15.517Z,25.82
2018-08-23T09:57:44.293Z,25.05
2018-08-23T10:00:14.396Z,25.25
2018-08-23T10:02:48.033Z,25.97
2018-08-23T10:05:21.786Z,26.73
2018-08-23T10:07:55.505Z,25.65
2018-08-23T10:10:29.184Z,26.02
2018-08-23T10:13:02.963Z,23.07
2018-08-23T10:15:36.582Z,24.15
2018-08-23T10:18:10.354Z,25.05
2018-08-23T10:20:45.093Z,23.07
2018-08-23T10:23:14.835Z,22.98
2018-08-23T10:25:45.381Z,22.70
2018-08-23T10:28:14.964Z,20.12
2018-08-23T10:30:43.692Z,21.50
2018-08-23T10:33:12.097Z,22.17
2018-08-23T10:35:46.365Z,20.90
2018-08-23T10:38:16.572Z,20.45
2018-08-23T10:40:45.818Z,19.45
2018-08-23T10:43:14.522Z,23.32
2018-08-23T10:45:43.362Z,22.20
2018-08-23T10:48:18.945Z,22.40
2018-08-23T10:50:48.488Z,22.80
2018-08-23T10:53:17.400Z,23.55
2018-08-23T10:55:45.978Z,21.77
2018-08-23T10:58:14.369Z,23.42
2018-08-23T11:00:42.889Z,22.22
2018-08-23T11:03:11.213Z,23.00
2018-08-23T11:05:39.577Z,30.75
2018-08-23T11:08:13.330Z,25.95
2018-08-23T11:10:47.037Z,22.82
2018-08-23T11:13:20.750Z,23.07
2018-08-23T11:15:49.109Z,21.37
2018-08-23T11:18:22.858Z,20.00
2018-08-23T11:20:51.389Z,22.17
2018-08-23T11:23:25.558Z,25.92
2018-08-23T11:25:53.995Z,17.80
2018-08-23T11:28:23.721Z,18.27
2018-08-23T11:30:52.623Z,16.65
2018-08-23T11:33:20.978Z,20.30
2018-08-23T11:35:49.310Z,21.00
2018-08-23T11:38:17.645Z,22.98
2018-08-23T11:40:46.074Z,28.62
2018-08-23T11:43:14.430Z,25.75
2018-08-23T11:45:42.808Z,25.32
2018-08-23T11:48:11.188Z,23.95
2018-08-23T11:50:39.533Z,26.87
2018-08-23T11:53:08.069Z,24.32
2018-08-23T11:55:36.338Z,26.40
2018-08-23T11:58:04.718Z,26.55
2018-08-23T12:00:33.033Z,20.52
2018-08-23T12:03:01.613Z,20.82
2018-08-23T12:05:30.073Z,19.17
2018-08-23T12:07:58.542Z,19.30
2018-08-23T12:10:26.981Z,21.93
2018-08-23T12:12:55.417Z,18.15
2018-08-23T12:15:30.813Z,20.57
2018-08-23T12:17:59.562Z,20.88
2018-08-23T12:20:27.916Z,22.85
2018-08-23T12:22:56.275Z,18.92
2018-08-23T12:25:24.714Z,19.80
2018-08-23T12:27:56.491Z,17.98
2018-08-23T12:30:24.927Z,24.90
2018-08-23T12:32:53.372Z,18.30
2018-08-23T12:35:21.810Z,21.45
2018-08-23T12:38:02.789Z,24.23
2018-08-23T12:40:37.090Z,18.15
2018-08-23T12:43:11.726Z,20.02
2018-08-23T12:45:43.074Z,20.97
2018-08-23T12:48:12.474Z,20.15
2018-08-23T12:50:41.833Z,23.87
2018-08-23T12:53:10.290Z,22.05
2018-08-23T12:55:38.753Z,21.07
2018-08-23T12:58:13.534Z,23.27
2018-08-23T13:00:42.735Z,21.95
2018-08-23T13:03:11.116Z,21.02
2018-08-23T13:05:39.756Z,19.07
2018-08-23T13:08:08.163Z,18.57
2018-08-23T13:10:36.999Z,16.35
2018-08-23T13:13:05.859Z,18.42
2018-08-23T13:15:34.219Z,19.15
2018-08-23T13:18:03.177Z,18.62
2018-08-23T13:20:31.600Z,16.65
2018-08-23T13:22:59.976Z,17.90
2018-08-23T13:25:28.326Z,19.77
2018-08-23T13:27:56.753Z,19.75
2018-08-23T13:30:25.142Z,17.25
2018-08-23T13:32:53.468Z,18.98
2018-08-23T13:35:21.893Z,16.93
2018-08-23T13:37:50.194Z,18.02
2018-08-23T13:40:19.598Z,19.70
2018-08-23T13:42:48.590Z,18.55
2018-08-23T13:45:17.249Z,13.22
2018-08-23T13:47:45.577Z,13.98
2018-08-23T13:50:13.925Z,15.60
2018-08-23T13:52:42.348Z,15.48
2018-08-23T13:55:10.743Z,15.03
2018-08-23T13:57:39.095Z,14.15
2018-08-23T14:00:07.521Z,16.27
2018-08-23T14:02:36.099Z,13.50
2018-08-23T14:05:04.506Z,14.83
2018-08-23T14:07:32.862Z,13.78
2018-08-23T14:10:01.436Z,13.90
2018-08-23T14:12:30.386Z,13.85
2018-08-23T14:14:58.797Z,14.83
2018-08-23T14:17:27.457Z,11.48
2018-08-23T14:19:56.262Z,13.28
2018-08-23T14:22:24.617Z,11.08
2018-08-23T14:24:52.953Z,14.78
2018-08-23T14:27:21.509Z,13.62
2018-08-23T14:29:49.817Z,14.65
2018-08-23T14:32:18.190Z,11.38
2018-08-23T14:34:46.491Z,11.97
2018-08-23T14:37:14.837Z,13.08
2018-08-23T14:39:43.254Z,13.83
2018-08-23T14:42:11.596Z,12.43
2018-08-23T14:44:40.013Z,11.85
2018-08-23T14:47:13.917Z,13.90
2018-08-23T14:49:42.285Z,14.55
2018-08-23T14:52:10.687Z,15.10
2018-08-23T14:54:41.898Z,15.53
2018-08-23T14:57:45.965Z,13.58
2018-08-23T15:00:14.268Z,18.98
2018-08-23T15:02:42.621Z,18.50
2018-08-23T15:05:11.336Z,15.13
2018-08-23T15:07:39.776Z,17.32
2018-08-23T15:10:08.109Z,19.25
2018-08-23T15:12:36.510Z,18.90
2018-08-23T15:15:07.853Z,15.88
2018-08-23T15:17:36.379Z,16.37
2018-08-23T15:20:04.814Z,16.82
2018-08-23T15:22:33.219Z,14.83
2018-08-23T15:25:01.567Z,14.95
2018-08-23T15:27:32.682Z,16.15
2018-08-23T15:30:01.899Z,14.90
2018-08-23T15:32:30.259Z,15.20
2018-08-23T15:34:58.584Z,13.58
2018-08-23T15:37:27.086Z,13.38
2018-08-23T15:39:55.412Z,11.35
2018-08-23T15:42:23.749Z,11.10
2018-08-23T15:44:52.077Z,14.53
2018-08-23T15:47:20.440Z,13.22
2018-08-23T15:49:48.969Z,10.30
2018-08-23T15:52:17.512Z,11.83
2018-08-23T15:54:45.923Z,12.63
2018-08-23T15:57:14.277Z,12.28
2018-08-23T15:59:42.630Z,11.93
2018-08-23T16:02:10.956Z,12.10
2018-08-23T16:04:39.378Z,11.93
2018-08-23T16:07:07.745Z,14.43
2018-08-23T16:09:36.073Z,14.25
2018-08-23T16:12:04.574Z,16.35
2018-08-23T16:14:32.956Z,17.00
2018-08-23T16:17:06.565Z,15.88
2018-08-23T16:19:40.343Z,16.57
2018-08-23T16:22:08.714Z,28.50
2018-08-23T16:24:37.154Z,21.40
2018-08-23T16:27:06.254Z,18.98
2018-08-23T16:29:34.705Z,18.73
2018-08-23T16:32:03.125Z,19.95
2018-08-23T16:34:31.541Z,20.00
2018-08-23T16:37:00.714Z,19.62
2018-08-23T16:39:29.142Z,17.92
2018-08-23T16:41:57.475Z,15.28
2018-08-23T16:44:25.891Z,17.82
2018-08-23T16:46:54.245Z,15.05
2018-08-23T16:49:22.760Z,15.88
2018-08-23T16:51:51.105Z,12.58
2018-08-23T16:54:19.445Z,12.35
2018-08-23T16:56:47.811Z,14.45
2018-08-23T16:59:16.207Z,15.18
2018-08-23T17:01:44.601Z,14.13
2018-08-23T17:04:13.075Z,15.70
2018-08-23T17:06:41.365Z,14.15
2018-08-23T17:09:09.682Z,15.17
2018-08-23T17:11:38.080Z,16.65
2018-08-23T17:14:06.679Z,16.50
2018-08-23T17:16:40.332Z,16.90
2018-08-23T17:19:08.800Z,14.17
2018-08-23T17:21:37.325Z,13.13
2018-08-23T17:24:05.653Z,13.87
2018-08-23T17:26:34.097Z,14.60
2018-08-23T17:29:02.437Z,16.83
2018-08-23T17:31:30.810Z,15.47
2018-08-23T17:33:59.193Z,19.07
2018-08-23T17:36:27.610Z,14.25
2018-08-23T17:38:55.937Z,19.43
2018-08-23T17:41:24.463Z,15.63
2018-08-23T17:43:52.777Z,15.53
2018-08-23T17:46:21.114Z,18.60
2018-08-23T17:48:49.452Z,16.07
2018-08-23T17:51:17.795Z,17.60
2018-08-23T17:53:46.107Z,15.43
2018-08-23T17:56:14.447Z,16.43
2018-08-23T17:58:42.777Z,19.07
2018-08-23T18:01:11.127Z,13.63
2018-08-23T18:03:39.629Z,14.37
2018-08-23T18:06:08.393Z,16.93
2018-08-23T18:08:36.773Z,14.80
2018-08-23T18:11:05.693Z,14.33
2018-08-23T18:13:34.060Z,14.90
2018-08-23T18:16:07.629Z,14.77
2018-08-23T18:18:36.077Z,15.53
2018-08-23T18:21:04.574Z,15.57
2018-08-23T18:23:32.936Z,14.00
2018-08-23T18:26:01.373Z,13.23
2018-08-23T18:28:29.748Z,12.73
2018-08-23T18:30:58.099Z,12.73
2018-08-23T18:33:26.690Z,11.73
2018-08-23T18:35:54.993Z,12.30
2018-08-23T18:38:23.330Z,14.00
2018-08-23T18:40:51.693Z,12.30
2018-08-23T18:43:20.120Z,11.90
2018-08-23T18:45:48.552Z,11.47
2018-08-23T18:48:16.907Z,12.57
2018-08-23T18:50:45.277Z,10.97
2018-08-23T18:53:13.618Z,11.70
2018-08-23T18:55:42.034Z,12.03
2018-08-23T18:58:10.449Z,11.87
2018-08-23T19:00:38.929Z,13.43
2018-08-23T19:03:07.261Z,13.23
2018-08-23T19:05:35.985Z,14.40
2018-08-23T19:08:04.345Z,12.83
2018-08-23T19:10:32.705Z,14.13
2018-08-23T19:13:01.235Z,13.80
2018-08-23T19:15:34.873Z,13.13
2018-08-23T19:18:03.453Z,12.77
2018-08-23T19:20:31.836Z,13.37
2018-08-23T19:23:00.316Z,14.73
2018-08-23T19:25:29.615Z,13.13
2018-08-23T19:27:57.933Z,13.77
2018-08-23T19:30:26.393Z,12.83
2018-08-23T19:32:54.859Z,14.07
2018-08-23T19:35:23.571Z,13.17
2018-08-23T19:37:51.870Z,14.20
2018-08-23T19:40:20.235Z,14.20
2018-08-23T19:42:48.637Z,14.53
2018-08-23T19:45:17.038Z,13.27
2018-08-23T19:47:50.729Z,13.47
2018-08-23T19:50:19.104Z,13.73
2018-08-23T19:52:47.594Z,14.50
2018-08-23T19:55:15.917Z,15.93
2018-08-23T19:57:44.264Z,14.27
2018-08-23T20:00:12.590Z,13.67
2018-08-23T20:02:41.148Z,14.20
2018-08-23T20:05:09.590Z,13.00
2018-08-23T20:07:37.870Z,13.33
2018-08-23T20:10:06.756Z,13.83
2018-08-23T20:12:35.260Z,14.43
2018-08-23T20:15:03.577Z,14.13
2018-08-23T20:17:31.927Z,15.23
2018-08-23T20:20:00.334Z,14.10
2018-08-23T20:22:28.958Z,14.70
2018-08-23T20:24:57.412Z,16.70
2018-08-23T20:27:25.785Z,13.67
2018-08-23T20:29:54.154Z,15.00
2018-08-23T20:32:22.570Z,14.87
2018-08-23T20:34:50.897Z,14.50
2018-08-23T20:37:19.216Z,14.63
2018-08-23T20:39:47.652Z,15.57
2018-08-23T20:42:15.945Z,14.97
2018-08-23T20:44:44.276Z,15.60
2018-08-23T20:47:12.690Z,15.77
2018-08-23T20:49:41.120Z,17.20
2018-08-23T20:52:09.406Z,16.87
2018-08-23T20:54:37.763Z,15.70
2018-08-23T20:57:06.162Z,17.57
2018-08-23T20:59:34.481Z,15.97
2018-08-23T21:02:03.402Z,16.80
2018-08-23T21:04:31.752Z,15.50
2018-08-23T21:07:00.247Z,16.67
2018-08-23T21:09:28.737Z,16.17
2018-08-23T21:11:57.052Z,17.57
2018-08-23T21:14:25.390Z,17.10
2018-08-23T21:16:53.749Z,17.03
2018-08-23T21:19:22.137Z,17.03
2018-08-23T21:21:50.483Z,15.87
2018-08-23T21:24:18.911Z,17.73
2018-08-23T21:26:47.241Z,16.80
2018-08-23T21:29:15.588Z,17.33
2018-08-23T21:31:43.940Z,18.00
2018-08-23T21:34:12.301Z,17.90
2018-08-23T21:36:40.636Z,18.13
2018-08-23T21:39:09.672Z,18.50
2018-08-23T21:41:44.825Z,16.17
2018-08-23T21:44:13.220Z,17.93
2018-08-23T21:46:41.572Z,16.57
2018-08-23T21:49:09.976Z,16.10
2018-08-23T21:51:38.502Z,16.50
2018-08-23T21:54:06.997Z,16.40
2018-08-23T21:56:35.313Z,17.70
2018-08-23T21:59:04.001Z,15.40
2018-08-23T22:01:32.333Z,17.87
2018-08-23T22:04:00.655Z,16.90
2018-08-23T22:06:29.133Z,20.83
2018-08-23T22:08:57.713Z,16.90
2018-08-23T22:11:26.144Z,17.20
2018-08-23T22:13:54.455Z,17.47
2018-08-23T22:16:22.813Z,16.23
2018-08-23T22:18:51.266Z,18.37
2018-08-23T22:21:19.626Z,16.97
2018-08-23T22:23:48.141Z,18.03
2018-08-23T22:26:16.483Z,16.00
2018-08-23T22:28:44.828Z,17.03
2018-08-23T22:31:13.213Z,15.43
2018-08-23T22:33:41.603Z,16.03
2018-08-23T22:36:09.967Z,15.27
2018-08-23T22:38:38.345Z,17.10
2018-08-23T22:41:06.678Z,16.63
2018-08-23T22:43:35.033Z,19.67
2018-08-23T22:46:03.404Z,16.57
2018-08-23T22:48:31.760Z,18.77
2018-08-23T22:51:00.117Z,17.30
2018-08-23T22:53:28.520Z,16.00
2018-08-23T22:55:56.849Z,17.93
2018-08-23T22:58:25.272Z,15.50
2018-08-23T23:00:53.576Z,15.50
2018-08-23T23:03:27.184Z,15.63
2018-08-23T23:05:55.586Z,15.27
2018-08-23T23:08:23.984Z,13.53
2018-08-23T23:10:52.348Z,15.57
2018-08-23T23:13:20.768Z,16.50
2018-08-23T23:15:49.120Z,17.97
2018-08-23T23:18:17.529Z,15.20
2018-08-23T23:20:45.884Z,16.07
2018-08-23T23:23:14.264Z,14.90
2018-08-23T23:25:42.606Z,18.87
2018-08-23T23:28:10.940Z,16.43
2018-08-23T23:30:39.407Z,20.20
2018-08-23T23:33:07.822Z,22.17
2018-08-23T23:35:36.162Z,20.47
2018-08-23T23:38:04.480Z,15.87
2018-08-23T23:40:32.836Z,18.97
2018-08-23T23:43:01.160Z,19.43
2018-08-23T23:45:29.507Z,16.23
2018-08-23T23:47:57.843Z,18.83
2018-08-23T23:50:26.245Z,20.47
2018-08-23T23:52:54.646Z,17.60
2018-08-23T23:55:23.004Z,19.80
2018-08-23T23:57:51.341Z,21.03
